createdAt,value
2019-03-13T00:00:41.938Z,67.50
2019-03-13T00:03:11.090Z,75.28
2019-03-13T00:05:39.923Z,61.58
2019-03-13T00:08:08.720Z,80.92
2019-03-13T00:10:37.266Z,90.57
2019-03-13T00:13:06.034Z,66.90
2019-03-13T00:15:34.659Z,62.45
2019-03-13T00:18:03.253Z,59.05
2019-03-13T00:20:31.785Z,103.40
2019-03-13T00:23:00.292Z,54.08
2019-03-13T00:25:28.889Z,62.50
2019-03-13T00:27:57.470Z,69.00
2019-03-13T00:30:26.160Z,48.65
2019-03-13T00:32:54.700Z,52.65
2019-03-13T00:35:23.351Z,40.70
2019-03-13T00:37:51.946Z,51.77
2019-03-13T00:40:20.454Z,33.67
2019-03-13T00:42:48.994Z,31.17
2019-03-13T00:45:17.515Z,30.27
2019-03-13T00:47:46.329Z,34.83
2019-03-13T00:50:26.949Z,55.83
2019-03-13T00:52:55.470Z,49.20
2019-03-13T00:55:24.015Z,45.58
2019-03-13T00:57:52.612Z,39.05
2019-03-13T01:00:39.451Z,44.23
2019-03-13T01:03:09.671Z,27.95
2019-03-13T01:05:56.527Z,26.93
2019-03-13T01:08:25.050Z,32.08
2019-03-13T01:10:53.663Z,33.65
2019-03-13T01:13:22.328Z,62.98
2019-03-13T01:15:50.850Z,85.80
2019-03-13T01:18:19.379Z,103.12
2019-03-13T01:20:47.921Z,77.12
2019-03-13T01:23:16.432Z,78.83
2019-03-13T01:25:45.043Z,46.55
2019-03-13T01:28:13.720Z,42.50
2019-03-13T01:30:46.708Z,34.95
2019-03-13T01:33:16.873Z,35.75
2019-03-13T01:35:47.032Z,36.83
2019-03-13T01:38:15.627Z,40.50
2019-03-13T01:40:44.201Z,31.07
2019-03-13T01:43:12.810Z,24.47
2019-03-13T01:45:41.474Z,29.90
2019-03-13T01:48:10.053Z,27.82
2019-03-13T01:50:38.557Z,61.77
2019-03-13T01:53:07.067Z,39.30
2019-03-13T01:55:35.678Z,23.20
2019-03-13T01:58:04.406Z,26.73
2019-03-13T02:00:33.347Z,17.07
2019-03-13T02:03:01.960Z,19.70
2019-03-13T02:05:30.470Z,19.23
2019-03-13T02:07:59.083Z,32.03
2019-03-13T02:10:27.593Z,25.88
2019-03-13T02:12:56.130Z,21.62
2019-03-13T02:15:24.713Z,12.60
2019-03-13T02:17:53.229Z,20.10
2019-03-13T02:20:21.741Z,16.37
2019-03-13T02:22:50.351Z,29.75
2019-03-13T02:25:19.098Z,23.65
2019-03-13T02:27:47.679Z,19.57
2019-03-13T02:30:21.548Z,27.02
2019-03-13T02:32:50.277Z,20.77
2019-03-13T02:35:18.896Z,17.65
2019-03-13T02:37:47.411Z,16.80
2019-03-13T02:40:16.591Z,11.50
2019-03-13T02:42:45.114Z,15.13
2019-03-13T02:45:15.176Z,16.57
2019-03-13T02:47:43.701Z,12.78
2019-03-13T02:50:16.606Z,12.03
2019-03-13T02:52:45.180Z,13.53
2019-03-13T02:55:13.861Z,14.25
2019-03-13T02:57:42.441Z,9.75
2019-03-13T03:00:15.374Z,16.60
2019-03-13T03:02:45.889Z,11.85
2019-03-13T03:05:14.540Z,8.80
2019-03-13T03:07:43.046Z,11.80
2019-03-13T03:10:13.010Z,17.10
2019-03-13T03:12:41.681Z,18.42
2019-03-13T03:15:18.093Z,19.10
2019-03-13T03:17:46.677Z,17.35
2019-03-13T03:20:17.726Z,18.05
2019-03-13T03:22:46.347Z,21.82
2019-03-13T03:25:16.413Z,13.55
2019-03-13T03:27:44.987Z,15.15
2019-03-13T03:30:19.024Z,14.75
2019-03-13T03:32:47.546Z,22.52
2019-03-13T03:35:16.238Z,19.77
2019-03-13T03:37:44.834Z,22.45
2019-03-13T03:40:21.338Z,19.67
2019-03-13T03:42:46.429Z,15.70
2019-03-13T03:45:15.089Z,16.37
2019-03-13T03:47:43.676Z,17.90
2019-03-13T03:50:13.804Z,23.42
2019-03-13T03:52:42.266Z,18.82
2019-03-13T03:55:12.106Z,17.60
2019-03-13T03:57:40.627Z,18.73
2019-03-13T04:00:15.032Z,17.00
2019-03-13T04:02:43.483Z,13.80
2019-03-13T04:05:12.193Z,15.03
2019-03-13T04:07:40.729Z,10.70
2019-03-13T04:10:13.459Z,13.25
2019-03-13T04:12:41.988Z,12.78
2019-03-13T04:15:12.051Z,21.87
2019-03-13T04:17:40.610Z,22.70
2019-03-13T04:20:14.187Z,107.90
2019-03-13T04:22:42.782Z,49.20
2019-03-13T04:25:23.489Z,16.25
2019-03-13T04:27:52.021Z,15.08
2019-03-13T04:30:20.477Z,28.32
2019-03-13T04:32:48.965Z,24.55
2019-03-13T04:35:18.195Z,30.05
2019-03-13T04:37:46.677Z,19.20
2019-03-13T04:40:15.712Z,22.45
2019-03-13T04:42:44.262Z,20.65
2019-03-13T04:45:13.278Z,44.95
2019-03-13T04:47:41.758Z,61.98
2019-03-13T04:50:46.846Z,71.62
2019-03-13T04:53:15.328Z,77.40
2019-03-13T04:55:43.821Z,76.17
2019-03-13T04:58:12.321Z,83.60
2019-03-13T05:00:40.792Z,114.45
2019-03-13T05:03:09.454Z,31.48
2019-03-13T05:05:44.993Z,18.95
2019-03-13T05:08:19.076Z,43.65
2019-03-13T05:10:47.543Z,78.02
2019-03-13T05:13:16.002Z,51.58
2019-03-13T05:15:44.503Z,69.47
2019-03-13T05:18:13.084Z,79.42
2019-03-13T05:20:41.560Z,52.60
2019-03-13T05:23:10.057Z,51.05
2019-03-13T05:25:38.523Z,49.45
2019-03-13T05:28:07.132Z,81.15
2019-03-13T05:30:35.583Z,48.63
2019-03-13T05:33:04.038Z,15.65
2019-03-13T05:35:32.529Z,20.32
2019-03-13T05:38:00.991Z,84.20
2019-03-13T05:40:29.477Z,42.85
2019-03-13T05:42:57.993Z,88.03
2019-03-13T05:45:26.458Z,41.37
2019-03-13T05:47:54.973Z,55.60
2019-03-13T05:50:23.430Z,32.60
2019-03-13T05:52:51.899Z,32.80
2019-03-13T05:55:20.386Z,47.15
2019-03-13T05:57:48.850Z,33.92
2019-03-13T06:00:18.967Z,58.92
2019-03-13T06:02:48.117Z,49.15
2019-03-13T06:05:16.659Z,48.33
2019-03-13T06:07:45.122Z,46.05
2019-03-13T06:10:14.927Z,42.15
2019-03-13T06:12:43.422Z,31.30
2019-03-13T06:15:13.627Z,34.50
2019-03-13T06:17:42.194Z,22.13
2019-03-13T06:20:13.498Z,22.37
2019-03-13T06:22:41.995Z,32.83
2019-03-13T06:25:12.463Z,50.78
2019-03-13T06:27:40.944Z,126.78
2019-03-13T06:30:18.227Z,35.95
2019-03-13T06:32:46.773Z,81.10
2019-03-13T06:35:15.505Z,59.63
2019-03-13T06:37:44.151Z,67.62
2019-03-13T06:40:14.355Z,64.05
2019-03-13T06:42:42.926Z,89.37
2019-03-13T06:45:13.426Z,61.53
2019-03-13T06:47:42.017Z,56.23
2019-03-13T06:50:13.462Z,88.22
2019-03-13T06:52:41.994Z,68.95
2019-03-13T06:55:10.859Z,39.70
2019-03-13T06:57:39.329Z,114.65
2019-03-13T07:00:39.423Z,50.90
2019-03-13T07:03:27.884Z,92.92
2019-03-13T07:05:58.002Z,73.92
2019-03-13T07:08:39.872Z,86.22
2019-03-13T07:11:22.236Z,92.82
2019-03-13T07:14:08.432Z,83.85
2019-03-13T07:16:54.787Z,99.58
2019-03-13T07:19:24.897Z,44.58
2019-03-13T07:21:57.955Z,52.95
2019-03-13T07:24:31.040Z,114.30
2019-03-13T07:27:01.175Z,95.85
2019-03-13T07:29:43.095Z,96.37
2019-03-13T07:32:13.208Z,111.30
2019-03-13T07:34:46.032Z,80.07
2019-03-13T07:37:18.590Z,68.60
2019-03-13T07:40:05.095Z,68.50
2019-03-13T07:42:35.195Z,45.03
2019-03-13T07:45:06.548Z,57.43
2019-03-13T07:47:45.923Z,50.30
2019-03-13T07:50:19.282Z,25.90
2019-03-13T07:52:55.099Z,53.02
2019-03-13T07:55:40.188Z,60.00
2019-03-13T07:58:10.335Z,48.80
2019-03-13T08:00:40.464Z,41.23
2019-03-13T08:03:19.576Z,33.02
2019-03-13T08:05:49.685Z,44.63
2019-03-13T08:08:19.825Z,138.47
2019-03-13T08:10:52.356Z,199.72
2019-03-13T08:13:40.560Z,212.72
2019-03-13T08:16:25.688Z,194.67
2019-03-13T08:19:01.699Z,75.03
2019-03-13T08:21:47.692Z,218.60
2019-03-13T08:24:35.904Z,147.43
2019-03-13T08:27:24.446Z,69.03
2019-03-13T08:30:12.938Z,47.78
2019-03-13T08:32:45.873Z,103.65
2019-03-13T08:35:24.655Z,139.60
2019-03-13T08:37:54.762Z,170.38
2019-03-13T08:40:36.385Z,175.42
2019-03-13T08:43:22.694Z,60.48
2019-03-13T08:46:08.994Z,91.05
2019-03-13T08:48:54.509Z,220.82
2019-03-13T08:51:36.387Z,56.83
2019-03-13T08:54:23.252Z,56.55
2019-03-13T08:57:08.428Z,201.98
2019-03-13T08:59:54.825Z,91.22
2019-03-13T09:02:37.438Z,48.25
2019-03-13T09:05:08.784Z,49.42
2019-03-13T09:07:38.893Z,51.68
2019-03-13T09:10:14.689Z,56.35
2019-03-13T09:12:44.794Z,42.13
2019-03-13T09:15:27.199Z,40.05
2019-03-13T09:18:02.882Z,44.00
2019-03-13T09:20:35.723Z,28.38
2019-03-13T09:23:14.564Z,35.15
2019-03-13T09:25:56.658Z,42.13
2019-03-13T09:28:29.432Z,30.70
2019-03-13T09:31:02.006Z,32.23
2019-03-13T09:33:34.814Z,39.80
2019-03-13T09:36:04.946Z,38.55
2019-03-13T09:38:38.209Z,32.67
2019-03-13T09:43:45.800Z,27.73
2019-03-13T09:46:21.709Z,38.65
2019-03-13T09:48:51.815Z,47.53
2019-03-13T09:51:21.960Z,29.95
2019-03-13T09:53:57.557Z,32.58
2019-03-13T09:56:27.658Z,28.40
2019-03-13T09:59:16.075Z,39.80
2019-03-13T10:01:48.873Z,22.32
2019-03-13T10:04:35.483Z,57.60
2019-03-13T10:07:11.320Z,175.27
2019-03-13T10:09:41.462Z,139.95
2019-03-13T10:12:26.692Z,44.77
2019-03-13T10:15:13.029Z,44.95
2019-03-13T10:17:59.424Z,46.05
2019-03-13T10:20:29.537Z,194.32
2019-03-13T10:23:02.619Z,62.95
2019-03-13T10:25:42.049Z,39.88
2019-03-13T10:28:18.156Z,47.33
2019-03-13T10:31:04.663Z,58.25
2019-03-13T10:33:34.787Z,29.70
2019-03-13T10:36:04.893Z,52.30
2019-03-13T10:38:41.090Z,54.98
2019-03-13T10:41:27.140Z,23.30
2019-03-13T10:43:57.273Z,27.00
2019-03-13T10:46:45.153Z,34.00
2019-03-13T10:49:15.322Z,40.55
2019-03-13T10:51:45.457Z,29.98
2019-03-13T10:54:24.722Z,67.87
2019-03-13T10:57:03.729Z,39.67
2019-03-13T10:59:36.506Z,29.10
2019-03-13T11:02:10.656Z,27.40
2019-03-13T11:04:40.938Z,46.73
2019-03-13T11:07:11.046Z,39.48
2019-03-13T11:09:41.159Z,23.38
2019-03-13T11:12:20.020Z,34.00
2019-03-13T11:14:50.155Z,32.95
2019-03-13T11:17:26.193Z,51.77
2019-03-13T11:20:11.166Z,49.45
2019-03-13T11:22:41.304Z,37.88
2019-03-13T11:25:11.545Z,27.98
2019-03-13T11:27:44.358Z,38.20
2019-03-13T11:30:32.759Z,31.77
2019-03-13T11:33:05.868Z,37.13
2019-03-13T11:35:35.974Z,24.67
2019-03-13T11:38:06.349Z,36.40
2019-03-13T11:40:44.994Z,25.40
2019-03-13T11:43:18.221Z,20.88
2019-03-13T11:45:54.099Z,31.27
2019-03-13T11:48:38.943Z,26.50
2019-03-13T11:51:15.471Z,18.55
2019-03-13T11:54:34.144Z,22.15
2019-03-13T12:02:42.749Z,89.92
2019-03-13T12:05:14.008Z,61.53
2019-03-13T12:07:49.614Z,140.40
2019-03-13T12:10:19.791Z,142.07
2019-03-13T12:12:55.662Z,46.05
2019-03-13T12:15:25.839Z,108.10
2019-03-13T12:17:56.040Z,91.37
2019-03-13T12:20:26.139Z,21.42
2019-03-13T12:22:58.941Z,40.30
2019-03-13T12:25:29.039Z,56.30
2019-03-13T12:28:11.019Z,17.05
2019-03-13T12:30:46.908Z,15.18
2019-03-13T12:33:19.819Z,22.15
2019-03-13T12:35:52.393Z,36.95
2019-03-13T12:38:28.406Z,15.35
2019-03-13T12:40:58.679Z,17.45
2019-03-13T12:43:44.911Z,15.10
2019-03-13T12:46:31.382Z,11.22
2019-03-13T12:49:01.500Z,18.95
2019-03-13T12:51:37.085Z,15.13
2019-03-13T12:54:07.367Z,21.15
2019-03-13T12:56:45.956Z,18.52
2019-03-13T12:59:16.128Z,37.28
2019-03-13T13:01:52.231Z,19.23
2019-03-13T13:04:25.576Z,18.05
2019-03-13T13:07:04.357Z,20.90
2019-03-13T13:09:46.820Z,43.23
2019-03-13T13:12:19.659Z,12.85
2019-03-13T13:14:55.639Z,59.27
2019-03-13T13:17:31.852Z,17.12
2019-03-13T13:20:00.403Z,56.35
2019-03-13T13:22:28.936Z,37.17
2019-03-13T13:24:57.539Z,30.15
2019-03-13T13:27:26.034Z,70.17
2019-03-13T13:29:54.720Z,22.02
2019-03-13T13:32:24.647Z,54.65
2019-03-13T13:34:53.097Z,27.37
2019-03-13T13:37:21.657Z,37.53
2019-03-13T13:39:50.286Z,30.85
2019-03-13T13:42:18.901Z,30.23
2019-03-13T13:44:47.424Z,22.48
2019-03-13T13:47:15.887Z,49.30
2019-03-13T13:49:58.884Z,27.25
2019-03-13T13:52:16.884Z,46.08
2019-03-13T13:54:45.389Z,64.72
2019-03-13T13:57:13.991Z,73.97
2019-03-13T13:59:42.554Z,32.48
2019-03-13T14:02:11.049Z,32.13
2019-03-13T14:04:39.513Z,39.70
2019-03-13T14:07:08.024Z,33.60
2019-03-13T14:09:36.567Z,30.57
2019-03-13T14:12:05.276Z,29.10
2019-03-13T14:14:33.755Z,61.98
2019-03-13T14:17:02.224Z,37.00
2019-03-13T14:19:30.703Z,24.25
2019-03-13T14:21:59.158Z,31.02
2019-03-13T14:24:27.635Z,25.37
2019-03-13T14:26:56.115Z,27.98
2019-03-13T14:29:24.590Z,58.60
2019-03-13T14:31:53.364Z,28.55
2019-03-13T14:34:21.916Z,36.08
2019-03-13T14:36:50.435Z,50.38
2019-03-13T14:39:18.978Z,48.15
2019-03-13T14:41:47.589Z,69.40
2019-03-13T14:44:16.053Z,94.67
2019-03-13T14:46:44.660Z,120.62
2019-03-13T14:49:13.195Z,67.53
2019-03-13T14:51:41.710Z,152.55
2019-03-13T14:54:11.763Z,113.60
2019-03-13T14:56:40.263Z,32.17
2019-03-13T14:59:10.033Z,25.65
2019-03-13T15:01:38.494Z,51.18
2019-03-13T15:04:08.069Z,68.47
2019-03-13T15:06:38.750Z,97.67
2019-03-13T15:09:06.869Z,96.40
2019-03-13T15:11:35.348Z,63.87
2019-03-13T15:14:04.613Z,47.62
2019-03-13T15:16:33.115Z,68.07
2019-03-13T15:19:01.603Z,79.65
2019-03-13T15:21:30.060Z,42.23
2019-03-13T15:23:58.513Z,32.53
2019-03-13T15:26:27.085Z,41.90
2019-03-13T15:28:55.553Z,124.82
2019-03-13T15:31:24.059Z,56.37
2019-03-13T15:33:52.535Z,310.35
2019-03-13T15:36:21.020Z,61.25
2019-03-13T15:38:49.513Z,60.73
2019-03-13T15:41:17.999Z,66.28
2019-03-13T15:43:47.950Z,133.37
2019-03-13T15:46:16.453Z,145.35
2019-03-13T15:48:47.654Z,114.60
2019-03-13T15:51:16.132Z,52.15
2019-03-13T15:53:44.664Z,181.63
2019-03-13T15:56:13.177Z,197.47
2019-03-13T15:58:41.650Z,55.67
2019-03-13T16:01:10.190Z,155.07
2019-03-13T16:03:38.667Z,39.40
2019-03-13T16:06:07.169Z,114.65
2019-03-13T16:08:35.633Z,78.57
2019-03-13T16:11:04.401Z,79.07
2019-03-13T16:13:32.854Z,76.45
2019-03-13T16:16:01.668Z,325.48
2019-03-13T16:18:30.132Z,257.18
2019-03-13T16:20:58.613Z,120.37
2019-03-13T16:23:27.131Z,141.50
2019-03-13T16:25:55.869Z,83.58
2019-03-13T16:28:24.469Z,84.17
2019-03-13T16:30:54.567Z,89.32
2019-03-13T16:33:23.127Z,132.00
2019-03-13T16:35:51.606Z,112.50
2019-03-13T16:38:20.079Z,125.92
2019-03-13T16:40:48.623Z,120.57
2019-03-13T16:43:18.378Z,179.12
2019-03-13T16:45:46.928Z,222.45
2019-03-13T16:48:15.474Z,89.42
2019-03-13T16:50:46.404Z,274.85
2019-03-13T16:53:14.907Z,191.40
2019-03-13T16:55:43.378Z,268.90
2019-03-13T16:58:11.879Z,307.02
2019-03-13T17:00:40.533Z,310.15
2019-03-13T17:03:09.071Z,352.10
2019-03-13T17:05:37.582Z,345.60
2019-03-13T17:08:07.472Z,415.50
2019-03-13T17:10:35.980Z,247.67
2019-03-13T17:13:05.683Z,369.87
2019-03-13T17:15:34.711Z,274.20
2019-03-13T17:18:05.178Z,131.75
2019-03-13T17:20:39.396Z,344.15
2019-03-13T17:23:07.906Z,222.30
2019-03-13T17:25:36.621Z,299.92
2019-03-13T17:28:06.046Z,454.45
2019-03-13T17:30:34.714Z,364.05
2019-03-13T17:33:03.169Z,499.30
2019-03-13T17:35:31.815Z,406.80
2019-03-13T17:38:00.356Z,106.50
2019-03-13T17:40:30.677Z,135.15
2019-03-13T17:42:59.170Z,77.92
2019-03-13T17:45:27.809Z,73.90
2019-03-13T17:47:56.363Z,134.55
2019-03-13T17:50:25.743Z,68.45
2019-03-13T17:52:54.377Z,82.47
2019-03-13T17:55:24.264Z,38.15
2019-03-13T17:57:52.962Z,55.03
2019-03-13T18:00:31.844Z,46.18
2019-03-13T18:03:00.472Z,74.95
2019-03-13T18:05:29.004Z,64.72
2019-03-13T18:07:57.502Z,43.28
2019-03-13T18:10:25.983Z,24.02
2019-03-13T18:12:54.545Z,41.60
2019-03-13T18:15:23.113Z,47.27
2019-03-13T18:17:51.711Z,50.25
2019-03-13T18:20:24.817Z,55.23
2019-03-13T18:22:53.512Z,52.00
2019-03-13T18:25:22.184Z,43.28
2019-03-13T18:27:50.831Z,47.62
2019-03-13T18:30:33.625Z,136.00
2019-03-13T18:33:02.260Z,64.82
2019-03-13T18:35:30.976Z,92.10
2019-03-13T18:37:59.611Z,58.73
2019-03-13T18:40:28.151Z,65.95
2019-03-13T18:42:56.785Z,87.72
2019-03-13T18:45:32.430Z,84.87
2019-03-13T18:48:00.981Z,78.65
2019-03-13T18:50:30.105Z,70.60
2019-03-13T18:52:58.651Z,80.87
2019-03-13T18:55:37.022Z,117.75
2019-03-13T18:58:06.414Z,168.65
2019-03-13T19:00:36.020Z,61.58
2019-03-13T19:03:06.843Z,59.48
2019-03-13T19:05:36.787Z,119.95
2019-03-13T19:08:06.935Z,72.72
2019-03-13T19:10:35.685Z,105.70
2019-03-13T19:13:06.255Z,84.45
2019-03-13T19:15:34.974Z,114.92
2019-03-13T19:18:03.586Z,76.47
2019-03-13T19:20:32.196Z,48.78
2019-03-13T19:23:01.132Z,68.65
2019-03-13T19:25:29.937Z,74.10
2019-03-13T19:27:58.664Z,52.48
2019-03-13T19:30:31.827Z,64.82
2019-03-13T19:33:01.174Z,543.40
2019-03-13T19:35:29.843Z,54.23
2019-03-13T19:38:01.169Z,193.10
2019-03-13T19:40:29.880Z,320.30
2019-03-13T19:42:58.377Z,54.05
2019-03-13T19:45:41.550Z,53.17
2019-03-13T19:48:10.416Z,43.80
2019-03-13T19:50:39.044Z,54.88
2019-03-13T19:53:07.887Z,96.50
2019-03-13T19:55:36.554Z,93.22
2019-03-13T19:58:06.069Z,79.05
2019-03-13T20:00:34.681Z,77.15
2019-03-13T20:03:06.230Z,67.87
2019-03-13T20:05:44.681Z,68.12
2019-03-13T20:08:05.377Z,204.82
2019-03-13T20:10:34.212Z,50.58
2019-03-13T20:13:02.899Z,94.50
2019-03-13T20:15:32.998Z,95.65
2019-03-13T20:18:01.687Z,361.35
2019-03-13T20:20:30.392Z,75.32
2019-03-13T20:23:04.635Z,153.02
2019-03-13T20:25:33.434Z,76.85
2019-03-13T20:28:02.121Z,72.37
2019-03-13T20:30:30.755Z,58.35
2019-03-13T20:32:59.457Z,49.33
2019-03-13T20:35:28.134Z,54.40
2019-03-13T20:37:56.873Z,55.50
2019-03-13T20:40:26.558Z,60.03
2019-03-13T20:42:55.287Z,81.22
2019-03-13T20:45:26.904Z,87.70
2019-03-13T20:47:55.743Z,78.45
2019-03-13T20:50:36.097Z,69.25
2019-03-13T20:52:54.853Z,54.48
2019-03-13T20:55:23.989Z,86.65
2019-03-13T20:57:52.564Z,269.62
2019-03-13T21:00:25.528Z,207.55
2019-03-13T21:02:55.140Z,290.77
2019-03-13T21:05:24.142Z,240.22
2019-03-13T21:07:53.153Z,199.85
2019-03-13T21:10:21.978Z,209.32
2019-03-13T21:12:50.638Z,337.80
2019-03-13T21:15:21.777Z,199.57
2019-03-13T21:17:50.391Z,186.47
2019-03-13T21:20:19.465Z,187.35
2019-03-13T21:22:47.939Z,163.40
2019-03-13T21:25:20.887Z,191.80
2019-03-13T21:27:49.537Z,139.25
2019-03-13T21:30:26.246Z,157.27
2019-03-13T21:32:54.800Z,137.25
2019-03-13T21:35:24.004Z,93.78
2019-03-13T21:37:52.683Z,122.78
2019-03-13T21:40:26.367Z,60.92
2019-03-13T21:42:55.488Z,138.88
2019-03-13T21:45:25.975Z,89.20
2019-03-13T21:47:54.583Z,91.45
2019-03-13T21:50:23.554Z,54.75
2019-03-13T21:52:52.361Z,41.95
2019-03-13T21:55:20.925Z,54.40
2019-03-13T21:57:51.935Z,38.33
2019-03-13T22:00:27.542Z,51.77
2019-03-13T22:02:56.469Z,62.48
2019-03-13T22:05:27.048Z,35.63
2019-03-13T22:07:56.199Z,88.75
2019-03-13T22:10:24.863Z,30.37
2019-03-13T22:12:53.414Z,31.93
2019-03-13T22:15:23.117Z,43.98
2019-03-13T22:17:51.762Z,30.10
2019-03-13T22:20:20.677Z,49.90
2019-03-13T22:22:49.326Z,98.05
2019-03-13T22:25:19.707Z,41.15
2019-03-13T22:27:48.445Z,38.00
2019-03-13T22:30:19.150Z,48.48
2019-03-13T22:32:47.831Z,43.95
2019-03-13T22:35:16.427Z,49.08
2019-03-13T22:37:44.977Z,40.43
2019-03-13T22:40:14.908Z,45.88
2019-03-13T22:42:43.386Z,44.03
2019-03-13T22:45:16.945Z,46.02
2019-03-13T22:47:45.489Z,41.45
2019-03-13T22:50:24.914Z,28.00
2019-03-13T22:52:53.521Z,29.85
2019-03-13T22:55:22.133Z,37.15
2019-03-13T22:57:50.590Z,44.50
2019-03-13T23:00:41.631Z,29.00
2019-03-13T23:03:10.837Z,42.55
2019-03-13T23:05:39.411Z,34.25
2019-03-13T23:08:07.949Z,88.22
2019-03-13T23:10:36.983Z,24.52
2019-03-13T23:13:05.611Z,27.65
2019-03-13T23:15:34.151Z,39.88
2019-03-13T23:18:02.652Z,23.38
2019-03-13T23:20:31.119Z,25.43
2019-03-13T23:22:59.584Z,20.35
2019-03-13T23:25:28.329Z,24.27
2019-03-13T23:27:56.804Z,17.27
2019-03-13T23:30:25.340Z,24.32
2019-03-13T23:32:53.838Z,15.55
2019-03-13T23:35:22.377Z,22.98
2019-03-13T23:37:50.857Z,22.30
2019-03-13T23:40:19.334Z,25.10
2019-03-13T23:42:47.795Z,17.02
2019-03-13T23:45:16.430Z,15.53
2019-03-13T23:47:44.896Z,20.37
2019-03-13T23:50:14.540Z,19.15
2019-03-13T23:52:43.023Z,19.95
2019-03-13T23:55:11.954Z,23.32
2019-03-13T23:57:40.418Z,18.25
